createdAt,value
2023-03-06T11:19:06.518Z,61.60
2023-03-06T11:29:29.648Z,7.20
2023-03-06T11:39:36.852Z,8.30
2023-03-06T11:49:47.569Z,8.10
2023-03-06T12:00:05.395Z,6.80
2023-03-06T12:10:51.412Z,7.60
2023-03-06T12:21:22.301Z,6.10
2023-03-06T12:31:46.447Z,6.20
2023-03-06T12:42:23.447Z,5.10
2023-03-06T12:52:35.109Z,7.00
2023-03-06T13:03:03.605Z,6.20
2023-03-06T13:13:33.311Z,7.70
2023-03-06T13:23:52.083Z,6.60
2023-03-06T13:34:00.875Z,7.80
2023-03-06T13:44:25.645Z,6.80
2023-03-06T13:54:44.033Z,7.60
2023-03-06T14:04:59.749Z,7.90
2023-03-06T14:15:52.403Z,9.00
2023-03-06T14:26:18.998Z,9.20
2023-03-06T14:36:46.985Z,9.10
2023-03-06T14:46:57.890Z,8.30
2023-03-06T14:57:07.472Z,9.50
2023-03-06T15:07:16.577Z,9.70
2023-03-06T15:17:49.317Z,11.20
2023-03-06T15:27:57.166Z,11.00
2023-03-06T15:38:04.426Z,13.60
2023-03-06T15:48:17.202Z,22.90
2023-03-06T15:58:27.855Z,15.80
2023-03-06T16:08:34.260Z,16.50
2023-03-06T16:18:40.562Z,19.50
2023-03-06T16:28:47.503Z,18.50
2023-03-06T16:38:54.756Z,17.10
2023-03-06T16:49:01.061Z,18.50
2023-03-06T16:59:07.457Z,17.50
2023-03-06T17:09:15.464Z,13.40
2023-03-06T17:19:21.891Z,12.40
2023-03-06T17:29:29.287Z,17.20
2023-03-06T17:39:38.095Z,18.55
2023-03-06T17:49:44.502Z,25.30
2023-03-06T17:59:50.871Z,22.10
2023-03-06T18:09:57.779Z,23.20
2023-03-06T18:20:04.553Z,25.50
2023-03-06T18:30:11.567Z,21.50
2023-03-06T18:40:18.119Z,20.40
2023-03-06T18:50:24.570Z,22.00
2023-03-06T19:00:30.887Z,16.80
2023-03-06T19:10:38.480Z,20.00
2023-03-06T19:20:45.406Z,27.20
2023-03-06T19:30:52.287Z,27.40
2023-03-06T19:40:58.966Z,29.50
2023-03-06T19:51:06.809Z,28.60
2023-03-06T20:01:15.263Z,26.30
2023-03-06T20:11:24.168Z,25.70
2023-03-06T20:21:32.683Z,22.30
2023-03-06T20:31:39.018Z,22.50
2023-03-06T20:41:46.208Z,20.20
2023-03-06T20:51:52.518Z,21.90
2023-03-06T21:01:58.990Z,22.00
2023-03-06T21:12:06.368Z,25.10
2023-03-06T21:22:12.875Z,24.60
2023-03-06T21:32:19.251Z,62.50
2023-03-06T21:42:25.614Z,33.10
2023-03-06T21:52:31.915Z,25.60
2023-03-06T22:02:38.918Z,36.90
2023-03-06T22:12:47.023Z,32.70
2023-03-06T22:33:07.345Z,29.40
2023-03-06T22:43:13.632Z,30.50
2023-03-06T22:53:19.952Z,32.10
2023-03-06T23:03:26.338Z,27.50
2023-03-06T23:13:32.636Z,25.20
2023-03-06T23:23:40.106Z,27.20
2023-03-06T23:33:46.405Z,26.60
2023-03-06T23:43:55.044Z,27.90
2023-03-06T23:54:02.199Z,34.00
